sensor_id;sensor_type;location;lat;lon;timestamp;P1;durP1;ratioP1;P2;durP2;ratioP2
16669;SDS011;8448;52.034;5.158;2022-12-20T00:00:07;7.80;;;4.67;;
16669;SDS011;8448;52.034;5.158;2022-12-20T00:02:35;6.43;;;4.60;;
16669;SDS011;8448;52.034;5.158;2022-12-20T00:05:03;7.83;;;4.77;;
16669;SDS011;8448;52.034;5.158;2022-12-20T00:07:31;4.97;;;4.20;;
16669;SDS011;8448;52.034;5.158;2022-12-20T00:09:58;8.87;;;4.60;;
16669;SDS011;8448;52.034;5.158;2022-12-20T00:12:25;5.00;;;4.40;;
16669;SDS011;8448;52.034;5.158;2022-12-20T00:14:54;6.90;;;4.27;;
16669;SDS011;8448;52.034;5.158;2022-12-20T00:17:21;6.00;;;4.20;;
16669;SDS011;8448;52.034;5.158;2022-12-20T00:19:49;7.20;;;4.37;;
16669;SDS011;8448;52.034;5.158;2022-12-20T00:22:16;6.13;;;4.10;;
16669;SDS011;8448;52.034;5.158;2022-12-20T00:24:43;6.20;;;4.07;;
16669;SDS011;8448;52.034;5.158;2022-12-20T00:27:11;6.57;;;3.93;;
16669;SDS011;8448;52.034;5.158;2022-12-20T00:29:39;6.00;;;4.07;;
16669;SDS011;8448;52.034;5.158;2022-12-20T00:32:07;6.10;;;3.80;;
16669;SDS011;8448;52.034;5.158;2022-12-20T00:34:35;6.07;;;3.70;;
16669;SDS011;8448;52.034;5.158;2022-12-20T00:37:02;6.20;;;3.90;;
16669;SDS011;8448;52.034;5.158;2022-12-20T00:39:30;6.13;;;3.93;;
16669;SDS011;8448;52.034;5.158;2022-12-20T00:41:57;7.20;;;4.00;;
16669;SDS011;8448;52.034;5.158;2022-12-20T00:44:24;5.70;;;3.90;;
16669;SDS011;8448;52.034;5.158;2022-12-20T00:46:52;7.27;;;3.70;;
16669;SDS011;8448;52.034;5.158;2022-12-20T00:49:21;5.83;;;4.00;;
16669;SDS011;8448;52.034;5.158;2022-12-20T00:51:48;5.90;;;3.47;;
16669;SDS011;8448;52.034;5.158;2022-12-20T00:54:15;5.47;;;3.67;;
16669;SDS011;8448;52.034;5.158;2022-12-20T00:56:43;7.17;;;3.70;;
16669;SDS011;8448;52.034;5.158;2022-12-20T00:59:12;6.03;;;3.90;;
16669;SDS011;8448;52.034;5.158;2022-12-20T01:01:39;6.87;;;3.87;;
16669;SDS011;8448;52.034;5.158;2022-12-20T01:04:06;5.47;;;3.87;;
16669;SDS011;8448;52.034;5.158;2022-12-20T01:06:35;4.37;;;3.40;;
16669;SDS011;8448;52.034;5.158;2022-12-20T01:09:03;6.57;;;3.80;;
16669;SDS011;8448;52.034;5.158;2022-12-20T01:11:31;6.17;;;3.93;;
16669;SDS011;8448;52.034;5.158;2022-12-20T01:14:00;6.33;;;3.90;;
16669;SDS011;8448;52.034;5.158;2022-12-20T01:16:28;6.57;;;3.87;;
16669;SDS011;8448;52.034;5.158;2022-12-20T01:18:57;5.70;;;4.03;;
16669;SDS011;8448;52.034;5.158;2022-12-20T01:21:25;5.63;;;3.87;;
16669;SDS011;8448;52.034;5.158;2022-12-20T01:23:54;8.50;;;4.10;;
16669;SDS011;8448;52.034;5.158;2022-12-20T01:26:23;7.87;;;3.97;;
16669;SDS011;8448;52.034;5.158;2022-12-20T01:28:53;5.90;;;3.93;;
16669;SDS011;8448;52.034;5.158;2022-12-20T01:31:22;6.50;;;4.30;;
16669;SDS011;8448;52.034;5.158;2022-12-20T01:33:50;5.63;;;4.30;;
16669;SDS011;8448;52.034;5.158;2022-12-20T01:36:18;6.90;;;4.80;;
16669;SDS011;8448;52.034;5.158;2022-12-20T01:38:46;6.47;;;4.67;;
16669;SDS011;8448;52.034;5.158;2022-12-20T01:41:16;6.87;;;4.63;;
16669;SDS011;8448;52.034;5.158;2022-12-20T01:43:48;6.67;;;4.50;;
16669;SDS011;8448;52.034;5.158;2022-12-20T01:46:18;8.40;;;4.83;;
16669;SDS011;8448;52.034;5.158;2022-12-20T01:48:47;8.23;;;4.27;;
16669;SDS011;8448;52.034;5.158;2022-12-20T01:51:16;8.50;;;4.20;;
16669;SDS011;8448;52.034;5.158;2022-12-20T01:53:44;8.87;;;4.63;;
16669;SDS011;8448;52.034;5.158;2022-12-20T01:56:12;6.57;;;4.47;;
16669;SDS011;8448;52.034;5.158;2022-12-20T01:58:41;6.83;;;4.90;;
16669;SDS011;8448;52.034;5.158;2022-12-20T02:01:09;6.47;;;4.80;;
16669;SDS011;8448;52.034;5.158;2022-12-20T02:03:37;7.87;;;4.40;;
16669;SDS011;8448;52.034;5.158;2022-12-20T02:06:15;6.60;;;4.43;;
16669;SDS011;8448;52.034;5.158;2022-12-20T02:08:43;11.53;;;4.90;;
16669;SDS011;8448;52.034;5.158;2022-12-20T02:11:16;9.57;;;4.87;;
16669;SDS011;8448;52.034;5.158;2022-12-20T02:13:59;7.97;;;4.90;;
16669;SDS011;8448;52.034;5.158;2022-12-20T02:16:34;6.20;;;4.50;;
16669;SDS011;8448;52.034;5.158;2022-12-20T02:19:07;9.97;;;4.90;;
16669;SDS011;8448;52.034;5.158;2022-12-20T02:21:41;7.72;;;4.95;;
16669;SDS011;8448;52.034;5.158;2022-12-20T02:30:00;7.93;;;4.70;;
16669;SDS011;8448;52.034;5.158;2022-12-20T02:32:31;8.67;;;5.00;;
16669;SDS011;8448;52.034;5.158;2022-12-20T02:35:03;6.60;;;4.73;;
16669;SDS011;8448;52.034;5.158;2022-12-20T02:37:32;8.63;;;5.00;;
16669;SDS011;8448;52.034;5.158;2022-12-20T02:40:00;8.77;;;4.97;;
16669;SDS011;8448;52.034;5.158;2022-12-20T02:42:29;9.13;;;4.97;;
16669;SDS011;8448;52.034;5.158;2022-12-20T02:45:00;7.40;;;4.97;;
16669;SDS011;8448;52.034;5.158;2022-12-20T02:47:45;7.80;;;5.00;;
16669;SDS011;8448;52.034;5.158;2022-12-20T02:50:16;10.37;;;5.07;;
16669;SDS011;8448;52.034;5.158;2022-12-20T02:52:46;8.20;;;5.43;;
16669;SDS011;8448;52.034;5.158;2022-12-20T02:55:13;6.53;;;4.77;;
16669;SDS011;8448;52.034;5.158;2022-12-20T02:57:42;7.83;;;5.07;;
16669;SDS011;8448;52.034;5.158;2022-12-20T03:00:16;6.63;;;4.90;;
16669;SDS011;8448;52.034;5.158;2022-12-20T03:02:45;7.13;;;4.70;;
16669;SDS011;8448;52.034;5.158;2022-12-20T03:05:31;7.17;;;4.77;;
16669;SDS011;8448;52.034;5.158;2022-12-20T03:08:01;8.07;;;4.90;;
16669;SDS011;8448;52.034;5.158;2022-12-20T03:10:28;6.27;;;4.70;;
16669;SDS011;8448;52.034;5.158;2022-12-20T03:12:56;7.37;;;4.80;;
16669;SDS011;8448;52.034;5.158;2022-12-20T03:15:25;6.70;;;4.53;;
16669;SDS011;8448;52.034;5.158;2022-12-20T03:17:55;9.03;;;5.03;;
16669;SDS011;8448;52.034;5.158;2022-12-20T03:20:22;6.73;;;4.37;;
16669;SDS011;8448;52.034;5.158;2022-12-20T03:22:50;7.13;;;4.70;;
16669;SDS011;8448;52.034;5.158;2022-12-20T03:25:17;7.17;;;4.97;;
16669;SDS011;8448;52.034;5.158;2022-12-20T03:27:45;6.60;;;4.30;;
16669;SDS011;8448;52.034;5.158;2022-12-20T03:30:13;6.87;;;4.90;;
16669;SDS011;8448;52.034;5.158;2022-12-20T03:32:42;7.77;;;5.37;;
16669;SDS011;8448;52.034;5.158;2022-12-20T03:35:10;6.40;;;4.50;;
16669;SDS011;8448;52.034;5.158;2022-12-20T03:37:39;8.43;;;4.70;;
16669;SDS011;8448;52.034;5.158;2022-12-20T03:40:08;7.50;;;5.20;;
16669;SDS011;8448;52.034;5.158;2022-12-20T03:42:36;8.77;;;4.53;;
16669;SDS011;8448;52.034;5.158;2022-12-20T03:45:04;8.40;;;4.70;;
16669;SDS011;8448;52.034;5.158;2022-12-20T03:47:32;5.73;;;4.30;;
16669;SDS011;8448;52.034;5.158;2022-12-20T03:50:02;8.03;;;4.60;;
16669;SDS011;8448;52.034;5.158;2022-12-20T03:52:32;6.33;;;4.17;;
16669;SDS011;8448;52.034;5.158;2022-12-20T03:55:00;8.07;;;4.30;;
16669;SDS011;8448;52.034;5.158;2022-12-20T03:57:35;6.27;;;4.30;;
16669;SDS011;8448;52.034;5.158;2022-12-20T04:00:07;7.33;;;4.23;;
16669;SDS011;8448;52.034;5.158;2022-12-20T04:02:39;6.33;;;4.07;;
16669;SDS011;8448;52.034;5.158;2022-12-20T04:05:11;7.07;;;3.67;;
16669;SDS011;8448;52.034;5.158;2022-12-20T04:07:38;7.83;;;4.17;;
16669;SDS011;8448;52.034;5.158;2022-12-20T04:10:06;5.60;;;3.80;;
16669;SDS011;8448;52.034;5.158;2022-12-20T04:12:34;6.07;;;4.10;;
16669;SDS011;8448;52.034;5.158;2022-12-20T04:15:03;5.27;;;3.50;;
16669;SDS011;8448;52.034;5.158;2022-12-20T04:17:32;5.47;;;3.97;;
16669;SDS011;8448;52.034;5.158;2022-12-20T04:19:59;6.47;;;3.77;;
16669;SDS011;8448;52.034;5.158;2022-12-20T04:22:45;7.03;;;3.93;;
16669;SDS011;8448;52.034;5.158;2022-12-20T04:25:13;8.93;;;4.20;;
16669;SDS011;8448;52.034;5.158;2022-12-20T04:27:42;9.60;;;4.20;;
16669;SDS011;8448;52.034;5.158;2022-12-20T04:30:10;4.73;;;3.57;;
16669;SDS011;8448;52.034;5.158;2022-12-20T04:32:38;7.43;;;4.00;;
16669;SDS011;8448;52.034;5.158;2022-12-20T04:35:06;7.13;;;3.73;;
16669;SDS011;8448;52.034;5.158;2022-12-20T04:37:38;7.43;;;3.77;;
16669;SDS011;8448;52.034;5.158;2022-12-20T04:40:08;6.07;;;4.20;;
16669;SDS011;8448;52.034;5.158;2022-12-20T04:42:49;6.53;;;3.90;;
16669;SDS011;8448;52.034;5.158;2022-12-20T04:45:17;6.17;;;4.00;;
16669;SDS011;8448;52.034;5.158;2022-12-20T04:47:45;7.83;;;4.20;;
16669;SDS011;8448;52.034;5.158;2022-12-20T04:50:16;6.70;;;4.37;;
16669;SDS011;8448;52.034;5.158;2022-12-20T04:52:44;6.13;;;4.43;;
16669;SDS011;8448;52.034;5.158;2022-12-20T04:55:32;7.83;;;4.87;;
16669;SDS011;8448;52.034;5.158;2022-12-20T04:58:03;10.07;;;5.00;;
16669;SDS011;8448;52.034;5.158;2022-12-20T05:00:30;7.20;;;4.50;;
16669;SDS011;8448;52.034;5.158;2022-12-20T05:03:06;11.97;;;5.30;;
16669;SDS011;8448;52.034;5.158;2022-12-20T05:05:33;6.53;;;4.87;;
16669;SDS011;8448;52.034;5.158;2022-12-20T05:08:01;8.03;;;5.20;;
16669;SDS011;8448;52.034;5.158;2022-12-20T05:10:28;9.93;;;5.23;;
16669;SDS011;8448;52.034;5.158;2022-12-20T05:13:00;7.10;;;4.73;;
16669;SDS011;8448;52.034;5.158;2022-12-20T05:15:34;6.70;;;4.80;;
16669;SDS011;8448;52.034;5.158;2022-12-20T05:18:01;7.53;;;5.17;;
16669;SDS011;8448;52.034;5.158;2022-12-20T05:20:40;9.33;;;5.43;;
16669;SDS011;8448;52.034;5.158;2022-12-20T05:23:08;8.37;;;4.83;;
16669;SDS011;8448;52.034;5.158;2022-12-20T05:26:02;10.27;;;5.10;;
16669;SDS011;8448;52.034;5.158;2022-12-20T05:28:47;7.63;;;4.80;;
16669;SDS011;8448;52.034;5.158;2022-12-20T05:31:15;8.50;;;5.60;;
16669;SDS011;8448;52.034;5.158;2022-12-20T05:33:42;6.13;;;4.80;;
16669;SDS011;8448;52.034;5.158;2022-12-20T05:36:10;5.87;;;4.60;;
16669;SDS011;8448;52.034;5.158;2022-12-20T05:38:37;9.10;;;4.63;;
16669;SDS011;8448;52.034;5.158;2022-12-20T05:41:11;9.00;;;4.83;;
16669;SDS011;8448;52.034;5.158;2022-12-20T05:43:39;6.40;;;4.97;;
16669;SDS011;8448;52.034;5.158;2022-12-20T05:46:08;9.27;;;4.60;;
16669;SDS011;8448;52.034;5.158;2022-12-20T05:48:48;6.33;;;4.60;;
16669;SDS011;8448;52.034;5.158;2022-12-20T05:51:16;5.87;;;4.50;;
16669;SDS011;8448;52.034;5.158;2022-12-20T05:53:54;8.57;;;4.53;;
16669;SDS011;8448;52.034;5.158;2022-12-20T05:56:37;6.90;;;4.40;;
16669;SDS011;8448;52.034;5.158;2022-12-20T05:59:04;6.60;;;4.47;;
16669;SDS011;8448;52.034;5.158;2022-12-20T06:01:35;7.67;;;4.47;;
16669;SDS011;8448;52.034;5.158;2022-12-20T06:04:03;6.93;;;4.83;;
16669;SDS011;8448;52.034;5.158;2022-12-20T06:06:31;6.43;;;4.80;;
16669;SDS011;8448;52.034;5.158;2022-12-20T06:08:59;7.23;;;4.70;;
16669;SDS011;8448;52.034;5.158;2022-12-20T06:11:38;6.53;;;4.50;;
16669;SDS011;8448;52.034;5.158;2022-12-20T06:14:08;5.63;;;4.37;;
16669;SDS011;8448;52.034;5.158;2022-12-20T06:16:42;6.47;;;4.07;;
16669;SDS011;8448;52.034;5.158;2022-12-20T06:19:10;7.30;;;4.40;;
16669;SDS011;8448;52.034;5.158;2022-12-20T06:21:38;7.20;;;4.50;;
16669;SDS011;8448;52.034;5.158;2022-12-20T06:24:08;7.23;;;4.37;;
16669;SDS011;8448;52.034;5.158;2022-12-20T06:26:39;6.60;;;3.97;;
16669;SDS011;8448;52.034;5.158;2022-12-20T06:29:08;4.97;;;3.60;;
16669;SDS011;8448;52.034;5.158;2022-12-20T06:31:49;6.00;;;3.80;;
16669;SDS011;8448;52.034;5.158;2022-12-20T06:34:17;5.37;;;3.77;;
16669;SDS011;8448;52.034;5.158;2022-12-20T06:36:45;4.57;;;3.72;;
16669;SDS011;8448;52.034;5.158;2022-12-20T06:39:18;6.10;;;3.83;;
16669;SDS011;8448;52.034;5.158;2022-12-20T06:41:55;5.10;;;3.47;;
16669;SDS011;8448;52.034;5.158;2022-12-20T06:44:23;6.23;;;3.63;;
16669;SDS011;8448;52.034;5.158;2022-12-20T06:46:53;4.70;;;3.27;;
16669;SDS011;8448;52.034;5.158;2022-12-20T06:49:20;4.87;;;3.60;;
16669;SDS011;8448;52.034;5.158;2022-12-20T06:51:49;7.03;;;3.80;;
16669;SDS011;8448;52.034;5.158;2022-12-20T06:54:20;6.60;;;3.83;;
16669;SDS011;8448;52.034;5.158;2022-12-20T06:56:49;4.77;;;3.57;;
16669;SDS011;8448;52.034;5.158;2022-12-20T06:59:16;5.57;;;3.70;;
16669;SDS011;8448;52.034;5.158;2022-12-20T07:01:44;6.60;;;3.70;;
16669;SDS011;8448;52.034;5.158;2022-12-20T07:04:13;6.47;;;3.50;;
16669;SDS011;8448;52.034;5.158;2022-12-20T07:06:40;6.33;;;3.80;;
16669;SDS011;8448;52.034;5.158;2022-12-20T07:09:08;6.60;;;3.90;;
16669;SDS011;8448;52.034;5.158;2022-12-20T07:11:36;6.70;;;3.40;;
16669;SDS011;8448;52.034;5.158;2022-12-20T07:14:03;6.67;;;3.87;;
16669;SDS011;8448;52.034;5.158;2022-12-20T07:16:31;5.63;;;3.47;;
16669;SDS011;8448;52.034;5.158;2022-12-20T07:18:59;6.23;;;3.20;;
16669;SDS011;8448;52.034;5.158;2022-12-20T07:21:28;5.20;;;3.30;;
16669;SDS011;8448;52.034;5.158;2022-12-20T07:23:55;4.40;;;3.00;;
16669;SDS011;8448;52.034;5.158;2022-12-20T07:26:23;4.50;;;2.90;;
16669;SDS011;8448;52.034;5.158;2022-12-20T07:28:50;5.13;;;3.27;;
16669;SDS011;8448;52.034;5.158;2022-12-20T07:31:17;5.80;;;3.07;;
16669;SDS011;8448;52.034;5.158;2022-12-20T07:33:45;6.03;;;3.20;;
16669;SDS011;8448;52.034;5.158;2022-12-20T07:36:13;4.70;;;2.60;;
16669;SDS011;8448;52.034;5.158;2022-12-20T07:38:42;4.73;;;2.73;;
16669;SDS011;8448;52.034;5.158;2022-12-20T07:41:10;5.80;;;3.00;;
16669;SDS011;8448;52.034;5.158;2022-12-20T07:43:38;4.93;;;2.80;;
16669;SDS011;8448;52.034;5.158;2022-12-20T07:46:06;6.27;;;3.13;;
16669;SDS011;8448;52.034;5.158;2022-12-20T07:48:35;4.30;;;2.90;;
16669;SDS011;8448;52.034;5.158;2022-12-20T07:51:05;4.70;;;3.10;;
16669;SDS011;8448;52.034;5.158;2022-12-20T07:53:34;4.53;;;3.10;;
16669;SDS011;8448;52.034;5.158;2022-12-20T07:56:05;3.90;;;2.80;;
16669;SDS011;8448;52.034;5.158;2022-12-20T07:58:35;5.93;;;3.03;;
16669;SDS011;8448;52.034;5.158;2022-12-20T08:01:04;3.73;;;3.10;;
16669;SDS011;8448;52.034;5.158;2022-12-20T08:03:32;5.90;;;3.23;;
16669;SDS011;8448;52.034;5.158;2022-12-20T08:06:03;6.30;;;3.07;;
16669;SDS011;8448;52.034;5.158;2022-12-20T08:08:33;4.60;;;3.10;;
16669;SDS011;8448;52.034;5.158;2022-12-20T08:11:07;4.60;;;3.00;;
16669;SDS011;8448;52.034;5.158;2022-12-20T08:13:36;4.77;;;2.87;;
16669;SDS011;8448;52.034;5.158;2022-12-20T08:16:04;5.50;;;3.00;;
16669;SDS011;8448;52.034;5.158;2022-12-20T08:18:32;7.77;;;2.90;;
16669;SDS011;8448;52.034;5.158;2022-12-20T08:21:03;4.10;;;3.00;;
16669;SDS011;8448;52.034;5.158;2022-12-20T08:23:31;6.43;;;2.73;;
16669;SDS011;8448;52.034;5.158;2022-12-20T08:25:59;4.47;;;2.60;;
16669;SDS011;8448;52.034;5.158;2022-12-20T08:28:28;4.10;;;2.80;;
16669;SDS011;8448;52.034;5.158;2022-12-20T08:30:59;5.37;;;3.00;;
16669;SDS011;8448;52.034;5.158;2022-12-20T08:33:27;6.33;;;2.60;;
16669;SDS011;8448;52.034;5.158;2022-12-20T08:35:58;5.33;;;2.93;;
16669;SDS011;8448;52.034;5.158;2022-12-20T08:38:26;3.67;;;2.60;;
16669;SDS011;8448;52.034;5.158;2022-12-20T08:40:55;6.37;;;2.90;;
16669;SDS011;8448;52.034;5.158;2022-12-20T08:43:28;3.33;;;2.47;;
16669;SDS011;8448;52.034;5.158;2022-12-20T08:45:55;4.77;;;2.90;;
16669;SDS011;8448;52.034;5.158;2022-12-20T08:48:23;5.17;;;2.53;;
16669;SDS011;8448;52.034;5.158;2022-12-20T08:50:54;4.80;;;3.03;;
16669;SDS011;8448;52.034;5.158;2022-12-20T08:53:23;5.10;;;2.83;;
16669;SDS011;8448;52.034;5.158;2022-12-20T08:55:50;5.30;;;3.00;;
16669;SDS011;8448;52.034;5.158;2022-12-20T08:58:18;4.97;;;3.13;;
16669;SDS011;8448;52.034;5.158;2022-12-20T09:00:47;5.37;;;3.20;;
16669;SDS011;8448;52.034;5.158;2022-12-20T09:03:15;6.27;;;3.40;;
16669;SDS011;8448;52.034;5.158;2022-12-20T09:05:43;8.17;;;3.30;;
16669;SDS011;8448;52.034;5.158;2022-12-20T09:08:11;5.20;;;3.43;;
16669;SDS011;8448;52.034;5.158;2022-12-20T09:10:39;4.53;;;3.10;;
16669;SDS011;8448;52.034;5.158;2022-12-20T09:13:07;5.67;;;3.37;;
16669;SDS011;8448;52.034;5.158;2022-12-20T09:15:35;12.70;;;3.67;;
16669;SDS011;8448;52.034;5.158;2022-12-20T09:18:04;6.03;;;3.70;;
16669;SDS011;8448;52.034;5.158;2022-12-20T09:20:31;7.50;;;3.50;;
16669;SDS011;8448;52.034;5.158;2022-12-20T09:22:59;9.90;;;3.67;;
16669;SDS011;8448;52.034;5.158;2022-12-20T09:25:26;5.40;;;3.40;;
16669;SDS011;8448;52.034;5.158;2022-12-20T09:27:54;5.70;;;3.60;;
16669;SDS011;8448;52.034;5.158;2022-12-20T09:30:21;7.23;;;3.67;;
16669;SDS011;8448;52.034;5.158;2022-12-20T09:32:49;5.90;;;3.60;;
16669;SDS011;8448;52.034;5.158;2022-12-20T09:35:18;8.17;;;3.83;;
16669;SDS011;8448;52.034;5.158;2022-12-20T09:37:46;7.87;;;3.80;;
16669;SDS011;8448;52.034;5.158;2022-12-20T09:40:16;7.57;;;4.00;;
16669;SDS011;8448;52.034;5.158;2022-12-20T09:42:45;6.00;;;3.60;;
16669;SDS011;8448;52.034;5.158;2022-12-20T09:45:14;8.13;;;4.20;;
16669;SDS011;8448;52.034;5.158;2022-12-20T09:47:47;7.73;;;4.20;;
16669;SDS011;8448;52.034;5.158;2022-12-20T09:50:18;7.13;;;3.70;;
16669;SDS011;8448;52.034;5.158;2022-12-20T09:52:50;7.73;;;4.27;;
16669;SDS011;8448;52.034;5.158;2022-12-20T09:55:25;7.33;;;4.37;;
16669;SDS011;8448;52.034;5.158;2022-12-20T09:58:00;7.70;;;4.23;;
16669;SDS011;8448;52.034;5.158;2022-12-20T10:00:34;8.13;;;4.40;;
16669;SDS011;8448;52.034;5.158;2022-12-20T10:03:03;7.67;;;4.77;;
16669;SDS011;8448;52.034;5.158;2022-12-20T10:05:34;9.33;;;4.83;;
16669;SDS011;8448;52.034;5.158;2022-12-20T10:08:06;7.23;;;4.60;;
16669;SDS011;8448;52.034;5.158;2022-12-20T10:10:46;6.77;;;4.67;;
16669;SDS011;8448;52.034;5.158;2022-12-20T10:13:22;11.10;;;5.30;;
16669;SDS011;8448;52.034;5.158;2022-12-20T10:15:57;10.63;;;4.93;;
16669;SDS011;8448;52.034;5.158;2022-12-20T10:18:38;10.57;;;5.00;;
16669;SDS011;8448;52.034;5.158;2022-12-20T10:21:17;9.53;;;5.00;;
16669;SDS011;8448;52.034;5.158;2022-12-20T10:23:50;9.03;;;5.07;;
16669;SDS011;8448;52.034;5.158;2022-12-20T10:26:23;8.63;;;5.13;;
16669;SDS011;8448;52.034;5.158;2022-12-20T10:28:51;6.37;;;4.97;;
16669;SDS011;8448;52.034;5.158;2022-12-20T10:31:18;6.67;;;5.00;;
16669;SDS011;8448;52.034;5.158;2022-12-20T10:33:46;11.37;;;5.50;;
16669;SDS011;8448;52.034;5.158;2022-12-20T10:36:18;9.17;;;5.50;;
16669;SDS011;8448;52.034;5.158;2022-12-20T10:38:49;9.90;;;5.53;;
16669;SDS011;8448;52.034;5.158;2022-12-20T10:41:18;9.33;;;5.90;;
16669;SDS011;8448;52.034;5.158;2022-12-20T10:43:48;9.73;;;5.73;;
16669;SDS011;8448;52.034;5.158;2022-12-20T10:46:22;9.13;;;5.67;;
16669;SDS011;8448;52.034;5.158;2022-12-20T10:48:53;9.53;;;5.80;;
16669;SDS011;8448;52.034;5.158;2022-12-20T10:51:22;10.07;;;4.90;;
16669;SDS011;8448;52.034;5.158;2022-12-20T10:53:52;7.63;;;5.07;;
16669;SDS011;8448;52.034;5.158;2022-12-20T10:56:23;9.97;;;5.07;;
16669;SDS011;8448;52.034;5.158;2022-12-20T10:58:53;10.73;;;5.10;;
16669;SDS011;8448;52.034;5.158;2022-12-20T11:01:24;7.37;;;5.17;;
16669;SDS011;8448;52.034;5.158;2022-12-20T11:03:56;9.87;;;5.37;;
16669;SDS011;8448;52.034;5.158;2022-12-20T11:06:27;7.80;;;5.53;;
16669;SDS011;8448;52.034;5.158;2022-12-20T11:09:16;8.53;;;5.50;;
16669;SDS011;8448;52.034;5.158;2022-12-20T11:11:59;9.47;;;5.50;;
16669;SDS011;8448;52.034;5.158;2022-12-20T11:14:32;7.60;;;5.33;;
16669;SDS011;8448;52.034;5.158;2022-12-20T11:17:03;8.40;;;5.97;;
16669;SDS011;8448;52.034;5.158;2022-12-20T11:19:42;8.83;;;5.80;;
16669;SDS011;8448;52.034;5.158;2022-12-20T11:22:36;7.90;;;6.40;;
16669;SDS011;8448;52.034;5.158;2022-12-20T11:25:16;8.87;;;5.77;;
16669;SDS011;8448;52.034;5.158;2022-12-20T11:27:54;8.80;;;6.00;;
16669;SDS011;8448;52.034;5.158;2022-12-20T11:30:38;9.13;;;6.17;;
16669;SDS011;8448;52.034;5.158;2022-12-20T11:33:27;10.33;;;6.43;;
16669;SDS011;8448;52.034;5.158;2022-12-20T11:36:09;8.63;;;6.20;;
16669;SDS011;8448;52.034;5.158;2022-12-20T11:38:43;10.77;;;6.80;;
16669;SDS011;8448;52.034;5.158;2022-12-20T11:41:16;10.40;;;6.60;;
16669;SDS011;8448;52.034;5.158;2022-12-20T11:43:52;12.93;;;6.73;;
16669;SDS011;8448;52.034;5.158;2022-12-20T11:46:29;9.63;;;6.17;;
16669;SDS011;8448;52.034;5.158;2022-12-20T11:49:16;11.37;;;6.70;;
16669;SDS011;8448;52.034;5.158;2022-12-20T11:51:58;10.13;;;6.70;;
16669;SDS011;8448;52.034;5.158;2022-12-20T11:54:33;8.47;;;6.60;;
16669;SDS011;8448;52.034;5.158;2022-12-20T11:57:04;8.53;;;6.90;;
16669;SDS011;8448;52.034;5.158;2022-12-20T11:59:39;8.33;;;6.47;;
16669;SDS011;8448;52.034;5.158;2022-12-20T12:02:10;9.30;;;6.37;;
16669;SDS011;8448;52.034;5.158;2022-12-20T12:04:40;12.87;;;6.40;;
16669;SDS011;8448;52.034;5.158;2022-12-20T12:07:11;9.00;;;6.33;;
16669;SDS011;8448;52.034;5.158;2022-12-20T12:09:44;10.77;;;6.73;;
16669;SDS011;8448;52.034;5.158;2022-12-20T12:12:18;7.33;;;6.20;;
16669;SDS011;8448;52.034;5.158;2022-12-20T12:14:51;8.40;;;6.90;;
16669;SDS011;8448;52.034;5.158;2022-12-20T12:17:26;10.53;;;6.50;;
16669;SDS011;8448;52.034;5.158;2022-12-20T12:20:00;11.40;;;7.00;;
16669;SDS011;8448;52.034;5.158;2022-12-20T12:22:39;10.47;;;6.80;;
16669;SDS011;8448;52.034;5.158;2022-12-20T12:25:10;10.23;;;6.33;;
16669;SDS011;8448;52.034;5.158;2022-12-20T12:27:40;10.93;;;7.00;;
16669;SDS011;8448;52.034;5.158;2022-12-20T12:30:10;10.20;;;7.07;;
16669;SDS011;8448;52.034;5.158;2022-12-20T12:32:39;11.37;;;6.97;;
16669;SDS011;8448;52.034;5.158;2022-12-20T12:35:17;8.97;;;6.63;;
16669;SDS011;8448;52.034;5.158;2022-12-20T12:38:03;10.53;;;7.17;;
16669;SDS011;8448;52.034;5.158;2022-12-20T12:43:52;11.13;;;7.73;;
16669;SDS011;8448;52.034;5.158;2022-12-20T12:46:21;9.80;;;7.53;;
16669;SDS011;8448;52.034;5.158;2022-12-20T12:48:53;12.60;;;7.83;;
16669;SDS011;8448;52.034;5.158;2022-12-20T12:51:24;12.03;;;7.53;;
16669;SDS011;8448;52.034;5.158;2022-12-20T12:54:00;11.37;;;7.47;;
16669;SDS011;8448;52.034;5.158;2022-12-20T12:56:30;9.03;;;7.57;;
16669;SDS011;8448;52.034;5.158;2022-12-20T12:59:20;11.20;;;8.00;;
16669;SDS011;8448;52.034;5.158;2022-12-20T13:04:54;9.17;;;7.50;;
16669;SDS011;8448;52.034;5.158;2022-12-20T13:07:24;10.60;;;7.80;;
16669;SDS011;8448;52.034;5.158;2022-12-20T13:09:54;11.27;;;7.93;;
16669;SDS011;8448;52.034;5.158;2022-12-20T13:18:23;11.23;;;8.00;;
16669;SDS011;8448;52.034;5.158;2022-12-20T13:27:03;11.47;;;7.73;;
16669;SDS011;8448;52.034;5.158;2022-12-20T13:29:50;9.17;;;7.60;;
16669;SDS011;8448;52.034;5.158;2022-12-20T13:35:41;9.67;;;8.53;;
16669;SDS011;8448;52.034;5.158;2022-12-20T13:38:38;11.07;;;8.60;;
16669;SDS011;8448;52.034;5.158;2022-12-20T13:41:40;12.00;;;8.67;;
16669;SDS011;8448;52.034;5.158;2022-12-20T13:47:05;9.93;;;8.73;;
16669;SDS011;8448;52.034;5.158;2022-12-20T13:49:46;11.67;;;8.97;;
16669;SDS011;8448;52.034;5.158;2022-12-20T13:52:17;10.53;;;8.50;;
16669;SDS011;8448;52.034;5.158;2022-12-20T13:54:49;11.60;;;9.10;;
16669;SDS011;8448;52.034;5.158;2022-12-20T13:57:20;11.63;;;8.63;;
16669;SDS011;8448;52.034;5.158;2022-12-20T13:59:53;10.97;;;8.70;;
16669;SDS011;8448;52.034;5.158;2022-12-20T14:02:22;11.57;;;8.90;;
16669;SDS011;8448;52.034;5.158;2022-12-20T14:04:55;11.00;;;8.97;;
16669;SDS011;8448;52.034;5.158;2022-12-20T14:07:25;10.00;;;8.50;;
16669;SDS011;8448;52.034;5.158;2022-12-20T14:09:55;9.30;;;8.03;;
16669;SDS011;8448;52.034;5.158;2022-12-20T14:12:25;10.70;;;9.00;;
16669;SDS011;8448;52.034;5.158;2022-12-20T14:14:53;9.20;;;8.17;;
16669;SDS011;8448;52.034;5.158;2022-12-20T14:17:24;10.00;;;8.50;;
16669;SDS011;8448;52.034;5.158;2022-12-20T14:20:06;12.03;;;8.50;;
16669;SDS011;8448;52.034;5.158;2022-12-20T14:22:41;12.13;;;7.93;;
16669;SDS011;8448;52.034;5.158;2022-12-20T14:25:15;10.13;;;8.67;;
16669;SDS011;8448;52.034;5.158;2022-12-20T14:27:50;10.60;;;8.50;;
16669;SDS011;8448;52.034;5.158;2022-12-20T14:30:27;9.47;;;8.47;;
16669;SDS011;8448;52.034;5.158;2022-12-20T14:32:57;11.23;;;8.97;;
16669;SDS011;8448;52.034;5.158;2022-12-20T14:35:25;9.87;;;8.77;;
16669;SDS011;8448;52.034;5.158;2022-12-20T14:37:55;9.97;;;8.93;;
16669;SDS011;8448;52.034;5.158;2022-12-20T14:40:25;10.87;;;8.63;;
16669;SDS011;8448;52.034;5.158;2022-12-20T14:42:52;11.23;;;8.87;;
16669;SDS011;8448;52.034;5.158;2022-12-20T14:45:22;10.57;;;9.03;;
16669;SDS011;8448;52.034;5.158;2022-12-20T14:47:55;11.07;;;9.30;;
16669;SDS011;8448;52.034;5.158;2022-12-20T14:50:27;10.13;;;8.50;;
16669;SDS011;8448;52.034;5.158;2022-12-20T14:52:57;10.43;;;8.77;;
16669;SDS011;8448;52.034;5.158;2022-12-20T14:55:28;11.03;;;9.43;;
16669;SDS011;8448;52.034;5.158;2022-12-20T14:57:58;11.30;;;9.80;;
16669;SDS011;8448;52.034;5.158;2022-12-20T15:00:27;10.17;;;9.10;;
16669;SDS011;8448;52.034;5.158;2022-12-20T15:02:57;11.17;;;9.37;;
16669;SDS011;8448;52.034;5.158;2022-12-20T15:05:35;10.90;;;9.30;;
16669;SDS011;8448;52.034;5.158;2022-12-20T15:08:20;11.87;;;9.10;;
16669;SDS011;8448;52.034;5.158;2022-12-20T15:10:58;11.93;;;9.27;;
16669;SDS011;8448;52.034;5.158;2022-12-20T15:13:29;13.83;;;9.47;;
16669;SDS011;8448;52.034;5.158;2022-12-20T15:15:59;10.93;;;9.50;;
16669;SDS011;8448;52.034;5.158;2022-12-20T15:18:28;11.33;;;9.20;;
16669;SDS011;8448;52.034;5.158;2022-12-20T15:21:00;11.03;;;9.83;;
16669;SDS011;8448;52.034;5.158;2022-12-20T15:23:31;12.30;;;10.43;;
16669;SDS011;8448;52.034;5.158;2022-12-20T15:26:00;13.17;;;10.17;;
16669;SDS011;8448;52.034;5.158;2022-12-20T15:28:27;15.40;;;10.60;;
16669;SDS011;8448;52.034;5.158;2022-12-20T15:30:55;14.07;;;10.30;;
16669;SDS011;8448;52.034;5.158;2022-12-20T15:33:23;13.90;;;10.43;;
16669;SDS011;8448;52.034;5.158;2022-12-20T15:35:52;14.55;;;13.05;;
16669;SDS011;8448;52.034;5.158;2022-12-20T15:38:20;15.43;;;11.33;;
16669;SDS011;8448;52.034;5.158;2022-12-20T15:40:50;13.47;;;11.20;;
16669;SDS011;8448;52.034;5.158;2022-12-20T15:43:19;13.90;;;11.40;;
16669;SDS011;8448;52.034;5.158;2022-12-20T15:45:49;15.43;;;11.97;;
16669;SDS011;8448;52.034;5.158;2022-12-20T15:48:17;14.07;;;11.33;;
16669;SDS011;8448;52.034;5.158;2022-12-20T15:50:48;14.17;;;11.60;;